Time;durP1;ratioP1;P1;durP2;ratioP2;P2;SDS_P1;SDS_P2;PMS_P1;PMS_P2;Temp;Humidity;BMP_temperature;BMP_pressure;BME280_temperature;BME280_humidity;BME280_pressure;Samples;Min_cycle;Max_cycle;Signal;HPM_P1;HPM_P2
2022/07/15 00:00:20;;;;;;;6.33;5.08;;;;;;;;;;1776902;79;21131;-67
2022/07/15 00:02:47;;;;;;;5.58;5.08;;;;;;;;;;1775913;79;21046;-66
2022/07/15 00:05:14;;;;;;;4.92;4.40;;;;;;;;;;1776324;79;20989;-66
2022/07/15 00:07:41;;;;;;;5.95;4.45;;;;;;;;;;1788031;79;21049;-66
2022/07/15 00:10:20;;;;;;;6.25;4.42;;;;;;;;;;1755418;79;21610;-66
2022/07/15 00:12:51;;;;;;;4.65;4.00;;;;;;;;;;1779403;79;21028;-67
2022/07/15 00:15:22;;;;;;;4.75;4.35;;;;;;;;;;1772842;79;21019;-67
2022/07/15 00:17:49;;;;;;;5.58;4.25;;;;;;;;;;1778857;81;21104;-66
2022/07/15 00:20:15;;;;;;;6.00;4.85;;;;;;;;;;1778542;81;21042;-66
2022/07/15 00:22:42;;;;;;;5.65;4.70;;;;;;;;;;1772596;79;21071;-66
2022/07/15 00:25:09;;;;;;;6.47;4.75;;;;;;;;;;1771242;79;20971;-66
2022/07/15 00:27:36;;;;;;;5.03;4.50;;;;;;;;;;1772611;81;21040;-65
2022/07/15 00:30:05;;;;;;;6.55;4.50;;;;;;;;;;1773389;81;20968;-66
2022/07/15 00:32:32;;;;;;;6.45;4.40;;;;;;;;;;1771139;79;20985;-67
2022/07/15 00:34:58;;;;;;;6.78;5.12;;;;;;;;;;1776602;79;21116;-66
2022/07/15 00:37:24;;;;;;;4.60;4.20;;;;;;;;;;1773626;80;20980;-66
2022/07/15 00:39:50;;;;;;;4.92;4.42;;;;;;;;;;1774235;79;21026;-66
2022/07/15 00:45:01;;;;;;;5.85;4.47;;;;;;;;;;1772510;79;21087;-66
2022/07/15 00:49:50;;;;;;;6.62;4.87;;;;;;;;;;1802307;79;22722;-67
2022/07/15 00:52:17;;;;;;;6.97;5.53;;;;;;;;;;1761916;81;21001;-68
2022/07/15 00:54:43;;;;;;;6.78;6.08;;;;;;;;;;1761513;80;21029;-67
2022/07/15 00:57:09;;;;;;;6.17;4.67;;;;;;;;;;1742264;81;21556;-67
2022/07/15 00:59:36;;;;;;;6.75;5.00;;;;;;;;;;1748665;81;21068;-68
2022/07/15 01:04:51;;;;;;;5.85;4.47;;;;;;;;;;1702216;78;21749;-66
2022/07/15 01:07:18;;;;;;;4.47;3.80;;;;;;;;;;1667526;84;21058;-66
2022/07/15 01:09:45;;;;;;;4.58;4.00;;;;;;;;;;1706885;83;21092;-66
2022/07/15 01:12:13;;;;;;;6.22;4.00;;;;;;;;;;1699808;83;21075;-66
2022/07/15 01:14:39;;;;;;;7.12;4.22;;;;;;;;;;1697993;83;21060;-66
2022/07/15 01:17:10;;;;;;;5.45;4.03;;;;;;;;;;1693598;83;22165;-66
2022/07/15 01:19:37;;;;;;;5.65;4.15;;;;;;;;;;1683560;84;21045;-66
2022/07/15 01:22:05;;;;;;;4.60;4.10;;;;;;;;;;1686140;84;21109;-66
2022/07/15 01:24:33;;;;;;;7.92;4.47;;;;;;;;;;1688476;84;21532;-66
2022/07/15 01:27:04;;;;;;;5.20;3.95;;;;;;;;;;1695571;84;21515;-68
2022/07/15 01:29:30;;;;;;;4.20;3.77;;;;;;;;;;1735518;81;21015;-66
2022/07/15 01:31:57;;;;;;;4.50;3.85;;;;;;;;;;1736710;81;21044;-67
2022/07/15 01:34:24;;;;;;;5.42;4.00;;;;;;;;;;1740450;81;21087;-66
2022/07/15 01:36:52;;;;;;;5.45;3.95;;;;;;;;;;1734611;81;21606;-66
2022/07/15 01:39:19;;;;;;;5.03;4.33;;;;;;;;;;1721390;81;21040;-67
2022/07/15 01:41:45;;;;;;;5.67;4.22;;;;;;;;;;1730699;81;21032;-66
2022/07/15 01:44:16;;;;;;;4.70;3.92;;;;;;;;;;1722792;81;21029;-67
2022/07/15 01:46:44;;;;;;;5.90;4.50;;;;;;;;;;1734857;81;21004;-66
2022/07/15 01:49:31;;;;;;;5.40;4.10;;;;;;;;;;1723367;81;21092;-66
2022/07/15 01:51:43;;;;;;;5.05;4.15;;;;;;;;;;1727585;81;21020;-67
2022/07/15 01:54:09;;;;;;;7.65;4.00;;;;;;;;;;1731847;81;21000;-67
2022/07/15 01:56:36;;;;;;;4.95;3.98;;;;;;;;;;1733154;81;21040;-66
2022/07/15 01:59:03;;;;;;;4.87;4.33;;;;;;;;;;1739311;81;21476;-66
2022/07/15 02:01:31;;;;;;;5.47;4.37;;;;;;;;;;1729500;81;20999;-66
2022/07/15 02:03:59;;;;;;;4.80;4.03;;;;;;;;;;1736618;81;21134;-66
2022/07/15 02:06:25;;;;;;;4.87;4.05;;;;;;;;;;1748998;81;21056;-66
2022/07/15 02:08:53;;;;;;;6.22;4.08;;;;;;;;;;1755543;81;21048;-66
2022/07/15 02:11:21;;;;;;;5.20;3.72;;;;;;;;;;1750487;81;21012;-66
2022/07/15 02:13:49;;;;;;;6.45;3.83;;;;;;;;;;1746565;81;21515;-67
2022/07/15 02:16:17;;;;;;;4.15;3.62;;;;;;;;;;1742816;81;21087;-67
2022/07/15 02:18:43;;;;;;;4.42;4.03;;;;;;;;;;1749893;81;21052;-66
2022/07/15 02:21:10;;;;;;;5.37;3.70;;;;;;;;;;1750800;81;21009;-66
2022/07/15 02:23:36;;;;;;;6.22;3.80;;;;;;;;;;1748405;81;21087;-66
2022/07/15 02:26:03;;;;;;;4.42;4.03;;;;;;;;;;1755725;81;21087;-66
2022/07/15 02:28:31;;;;;;;5.20;4.22;;;;;;;;;;1748383;81;21577;-66
2022/07/15 02:30:58;;;;;;;5.00;3.70;;;;;;;;;;1736858;81;21115;-66
2022/07/15 02:33:25;;;;;;;7.12;4.05;;;;;;;;;;1751106;81;21028;-66
2022/07/15 02:35:51;;;;;;;5.03;4.05;;;;;;;;;;1753108;81;21063;-66
2022/07/15 02:38:17;;;;;;;4.37;3.98;;;;;;;;;;1717084;83;21036;-66
2022/07/15 02:40:44;;;;;;;6.30;4.25;;;;;;;;;;1686929;84;21034;-66
2022/07/15 02:43:10;;;;;;;5.00;3.83;;;;;;;;;;1715194;83;21533;-67
2022/07/15 02:45:38;;;;;;;5.22;4.20;;;;;;;;;;1712212;83;21002;-66
2022/07/15 02:48:06;;;;;;;4.60;4.05;;;;;;;;;;1715851;83;21148;-66
2022/07/15 02:50:35;;;;;;;5.55;4.40;;;;;;;;;;1715683;83;21051;-66
2022/07/15 02:53:02;;;;;;;5.45;4.45;;;;;;;;;;1714603;83;21062;-66
2022/07/15 02:55:29;;;;;;;3.98;3.52;;;;;;;;;;1713752;83;21566;-67
2022/07/15 02:57:55;;;;;;;4.92;3.72;;;;;;;;;;1684351;84;20989;-66
2022/07/15 03:00:22;;;;;;;5.55;3.75;;;;;;;;;;1677942;84;21029;-66
2022/07/15 03:02:50;;;;;;;4.47;3.80;;;;;;;;;;1682858;84;21003;-66
2022/07/15 03:05:17;;;;;;;5.53;3.80;;;;;;;;;;1711841;83;21117;-66
2022/07/15 03:07:44;;;;;;;4.90;3.83;;;;;;;;;;1710265;83;21046;-66
2022/07/15 03:10:13;;;;;;;5.03;4.20;;;;;;;;;;1712650;83;21016;-66
2022/07/15 03:12:40;;;;;;;6.17;3.37;;;;;;;;;;1707980;83;21042;-66
2022/07/15 03:15:08;;;;;;;4.35;3.95;;;;;;;;;;1711648;83;21079;-67
2022/07/15 03:17:34;;;;;;;5.12;3.98;;;;;;;;;;1708832;83;21581;-66
2022/07/15 03:20:02;;;;;;;4.97;3.90;;;;;;;;;;1683580;84;21037;-66
2022/07/15 03:22:30;;;;;;;4.85;4.00;;;;;;;;;;1684308;84;21076;-66
2022/07/15 03:24:57;;;;;;;4.37;3.92;;;;;;;;;;1682639;84;21001;-66
2022/07/15 03:27:23;;;;;;;5.00;4.35;;;;;;;;;;1683832;84;21017;-66
2022/07/15 03:29:50;;;;;;;4.65;3.92;;;;;;;;;;1708936;83;20991;-66
2022/07/15 03:32:19;;;;;;;4.83;3.95;;;;;;;;;;1680700;84;21529;-66
2022/07/15 03:34:48;;;;;;;4.83;4.40;;;;;;;;;;1688228;83;21097;-66
2022/07/15 03:37:16;;;;;;;4.45;4.00;;;;;;;;;;1689748;83;21018;-66
2022/07/15 03:39:42;;;;;;;4.80;3.62;;;;;;;;;;1705315;83;21042;-66
2022/07/15 03:42:09;;;;;;;5.17;4.40;;;;;;;;;;1711692;83;21056;-66
2022/07/15 03:44:36;;;;;;;5.30;4.25;;;;;;;;;;1654026;85;21024;-66
2022/07/15 03:47:02;;;;;;;6.17;4.30;;;;;;;;;;1680049;85;21065;-66
2022/07/15 03:49:28;;;;;;;5.42;4.00;;;;;;;;;;1679906;85;21049;-66
2022/07/15 03:51:55;;;;;;;6.65;4.58;;;;;;;;;;1700562;84;21068;-66
2022/07/15 03:54:21;;;;;;;7.28;4.25;;;;;;;;;;1708092;83;21048;-66
2022/07/15 03:56:48;;;;;;;6.05;4.35;;;;;;;;;;1671934;85;21068;-65
2022/07/15 03:59:14;;;;;;;4.62;4.10;;;;;;;;;;1676854;85;21060;-65
2022/07/15 04:01:41;;;;;;;6.28;3.67;;;;;;;;;;1709491;83;21017;-66
2022/07/15 04:04:08;;;;;;;5.37;3.65;;;;;;;;;;1717661;83;21093;-66
2022/07/15 04:06:35;;;;;;;4.70;4.12;;;;;;;;;;1684681;84;21048;-67
2022/07/15 04:09:01;;;;;;;5.58;4.12;;;;;;;;;;1705017;83;21001;-66
2022/07/15 04:11:28;;;;;;;4.83;4.22;;;;;;;;;;1683498;84;21080;-67
2022/07/15 04:13:54;;;;;;;5.55;3.90;;;;;;;;;;1717912;83;21064;-67
2022/07/15 04:16:21;;;;;;;24.35;15.08;;;;;;;;;;1654342;85;21067;-67
2022/07/15 04:18:51;;;;;;;16.12;10.80;;;;;;;;;;1671095;84;21552;-67
2022/07/15 04:21:16;;;;;;;10.40;7.47;;;;;;;;;;1659670;85;21056;-67
2022/07/15 04:23:42;;;;;;;7.87;5.80;;;;;;;;;;1707530;83;20989;-67
2022/07/15 04:26:09;;;;;;;8.65;6.03;;;;;;;;;;1663104;85;21024;-67
2022/07/15 04:28:36;;;;;;;7.08;6.08;;;;;;;;;;1681411;85;21061;-66
2022/07/15 04:31:02;;;;;;;6.30;5.20;;;;;;;;;;1711447;83;21080;-66
2022/07/15 04:33:31;;;;;;;6.55;4.95;;;;;;;;;;1687276;84;20984;-66
2022/07/15 04:35:58;;;;;;;7.67;5.37;;;;;;;;;;1688000;84;21051;-66
2022/07/15 04:38:24;;;;;;;5.92;4.90;;;;;;;;;;1685168;84;21075;-67
2022/07/15 04:40:51;;;;;;;6.20;5.00;;;;;;;;;;1685824;84;21044;-67
2022/07/15 04:43:17;;;;;;;5.42;4.65;;;;;;;;;;1689736;84;21028;-67
2022/07/15 04:45:44;;;;;;;5.47;4.50;;;;;;;;;;1712597;83;21041;-66
2022/07/15 04:50:56;;;;;;;5.30;4.80;;;;;;;;;;1681146;85;21034;-66
2022/07/15 04:53:25;;;;;;;4.65;4.17;;;;;;;;;;1696664;84;21007;-67
2022/07/15 04:55:52;;;;;;;6.10;4.58;;;;;;;;;;1682129;85;21100;-66
2022/07/15 04:58:19;;;;;;;6.72;4.50;;;;;;;;;;1713223;83;21080;-66
2022/07/15 05:00:45;;;;;;;5.25;4.40;;;;;;;;;;1708372;83;21515;-66
2022/07/15 05:03:14;;;;;;;5.67;4.62;;;;;;;;;;1696880;84;21072;-66
2022/07/15 05:05:41;;;;;;;5.40;4.90;;;;;;;;;;1689576;83;21037;-66
2022/07/15 05:08:09;;;;;;;5.40;4.47;;;;;;;;;;1692980;84;21088;-66
2022/07/15 05:10:37;;;;;;;7.15;4.37;;;;;;;;;;1678811;85;21527;-66
2022/07/15 05:13:03;;;;;;;5.62;4.20;;;;;;;;;;1699797;84;21004;-66
2022/07/15 05:15:33;;;;;;;5.42;4.45;;;;;;;;;;1707924;83;21524;-66
2022/07/15 05:18:01;;;;;;;4.70;4.22;;;;;;;;;;1682883;84;21564;-66
2022/07/15 05:20:27;;;;;;;5.55;4.50;;;;;;;;;;1680634;84;21484;-66
2022/07/15 05:22:54;;;;;;;5.12;4.62;;;;;;;;;;1712270;83;20991;-66
2022/07/15 05:25:20;;;;;;;5.17;4.33;;;;;;;;;;1708004;83;20994;-65
2022/07/15 05:27:48;;;;;;;5.75;4.58;;;;;;;;;;1710894;83;21019;-65
2022/07/15 05:30:18;;;;;;;5.37;4.40;;;;;;;;;;1710618;83;21022;-65
2022/07/15 05:32:44;;;;;;;5.03;4.37;;;;;;;;;;1707383;83;21070;-64
2022/07/15 05:35:14;;;;;;;6.40;4.47;;;;;;;;;;1679660;84;21056;-67
2022/07/15 05:37:41;;;;;;;6.83;4.90;;;;;;;;;;1678337;85;20993;-66
2022/07/15 05:40:09;;;;;;;5.30;4.80;;;;;;;;;;1674933;85;21035;-67
2022/07/15 05:42:38;;;;;;;6.75;4.78;;;;;;;;;;1671137;85;21014;-68
2022/07/15 05:45:07;;;;;;;5.65;4.47;;;;;;;;;;1679114;85;20966;-68
2022/07/15 05:47:33;;;;;;;6.28;4.47;;;;;;;;;;1675394;85;21050;-67
2022/07/15 05:50:00;;;;;;;5.70;4.83;;;;;;;;;;1670833;85;21155;-66
2022/07/15 05:52:27;;;;;;;7.67;5.00;;;;;;;;;;1667845;85;21516;-67
2022/07/15 05:54:53;;;;;;;8.00;4.83;;;;;;;;;;1674321;85;21026;-67
2022/07/15 05:57:19;;;;;;;6.00;5.20;;;;;;;;;;1669751;85;21026;-66
2022/07/15 05:59:45;;;;;;;6.92;4.45;;;;;;;;;;1678137;85;21082;-66
2022/07/15 06:02:13;;;;;;;6.42;4.60;;;;;;;;;;1677789;85;21053;-68
2022/07/15 06:04:40;;;;;;;5.72;4.92;;;;;;;;;;1700235;83;21524;-67
2022/07/15 06:07:07;;;;;;;5.15;4.65;;;;;;;;;;1685636;84;21040;-68
2022/07/15 06:09:34;;;;;;;6.70;4.53;;;;;;;;;;1686520;84;20992;-67
2022/07/15 06:12:02;;;;;;;7.10;4.67;;;;;;;;;;1701529;83;21003;-67
2022/07/15 06:14:31;;;;;;;6.00;4.83;;;;;;;;;;1705378;83;21038;-67
2022/07/15 06:16:58;;;;;;;7.33;4.00;;;;;;;;;;1684221;84;21039;-66
2022/07/15 06:19:24;;;;;;;4.62;4.10;;;;;;;;;;1705267;83;21038;-67
2022/07/15 06:21:52;;;;;;;6.85;4.08;;;;;;;;;;1679318;84;21091;-66
2022/07/15 06:24:19;;;;;;;7.92;4.05;;;;;;;;;;1714146;83;21062;-67
2022/07/15 06:26:45;;;;;;;6.22;4.00;;;;;;;;;;1703183;83;21159;-67
2022/07/15 06:29:11;;;;;;;6.17;4.30;;;;;;;;;;1701167;83;21081;-67
2022/07/15 06:31:39;;;;;;;5.17;3.98;;;;;;;;;;1704016;83;22186;-68
2022/07/15 06:34:06;;;;;;;7.10;3.70;;;;;;;;;;1672291;84;20994;-65
2022/07/15 06:36:32;;;;;;;6.50;4.30;;;;;;;;;;1703894;83;21316;-66
2022/07/15 06:38:59;;;;;;;7.85;6.35;;;;;;;;;;1715052;83;21053;-67
2022/07/15 06:41:25;;;;;;;5.72;4.15;;;;;;;;;;1706356;83;21093;-67
2022/07/15 06:43:51;;;;;;;7.55;5.97;;;;;;;;;;1705270;83;21022;-66
2022/07/15 06:46:28;;;;;;;5.47;4.70;;;;;;;;;;1696582;83;21555;-67
2022/07/15 06:48:55;;;;;;;4.67;3.90;;;;;;;;;;1713683;83;21522;-67
2022/07/15 06:51:21;;;;;;;5.72;4.53;;;;;;;;;;1708522;83;21529;-67
2022/07/15 06:53:47;;;;;;;5.30;4.08;;;;;;;;;;1713339;83;21476;-68
2022/07/15 06:56:14;;;;;;;5.87;4.20;;;;;;;;;;1711295;83;22387;-67
2022/07/15 06:58:40;;;;;;;4.92;4.00;;;;;;;;;;1711978;83;21022;-66
2022/07/15 07:01:07;;;;;;;4.85;3.70;;;;;;;;;;1684451;84;21115;-67
2022/07/15 07:03:34;;;;;;;8.15;3.98;;;;;;;;;;1716653;82;21092;-67
2022/07/15 07:06:01;;;;;;;5.95;3.52;;;;;;;;;;1681258;84;20985;-66
2022/07/15 07:08:28;;;;;;;4.60;3.65;;;;;;;;;;1682829;84;21078;-66
2022/07/15 07:10:56;;;;;;;4.75;3.95;;;;;;;;;;1686715;84;21459;-66
2022/07/15 07:13:23;;;;;;;3.77;3.37;;;;;;;;;;1704173;83;21098;-66
2022/07/15 07:15:50;;;;;;;5.45;4.00;;;;;;;;;;1703537;83;21089;-67
2022/07/15 07:18:16;;;;;;;4.33;3.83;;;;;;;;;;1699619;83;21606;-66
2022/07/15 07:20:43;;;;;;;5.35;3.70;;;;;;;;;;1681969;83;21070;-67
2022/07/15 07:23:10;;;;;;;3.90;3.60;;;;;;;;;;1674697;84;21067;-67
2022/07/15 07:25:36;;;;;;;25.90;23.52;;;;;;;;;;1669930;84;21072;-64
2022/07/15 07:28:03;;;;;;;98.17;87.92;;;;;;;;;;1673106;84;22083;-66
2022/07/15 07:30:30;;;;;;;18.98;17.15;;;;;;;;;;1674942;84;21060;-65
2022/07/15 07:32:57;;;;;;;10.65;9.55;;;;;;;;;;1671792;84;21532;-64
2022/07/15 07:35:23;;;;;;;6.15;4.75;;;;;;;;;;1702079;83;21029;-66
2022/07/15 07:37:50;;;;;;;4.28;3.67;;;;;;;;;;1702921;83;21168;-66
2022/07/15 07:40:16;;;;;;;5.65;3.92;;;;;;;;;;1705172;83;22381;-66
2022/07/15 07:42:44;;;;;;;4.17;3.58;;;;;;;;;;1682280;84;21039;-67
2022/07/15 07:45:10;;;;;;;4.45;3.50;;;;;;;;;;1703757;83;21043;-65
2022/07/15 07:47:39;;;;;;;5.30;3.30;;;;;;;;;;1678646;84;21090;-68
2022/07/15 07:50:06;;;;;;;5.08;3.77;;;;;;;;;;1675165;84;21057;-66
2022/07/15 07:52:32;;;;;;;4.00;3.05;;;;;;;;;;1684954;84;21060;-67
2022/07/15 07:54:58;;;;;;;4.72;3.37;;;;;;;;;;1677718;84;21068;-68
2022/07/15 07:57:25;;;;;;;9.40;3.47;;;;;;;;;;1681808;84;21076;-66
2022/07/15 07:59:51;;;;;;;5.42;3.33;;;;;;;;;;1703372;83;21025;-66
2022/07/15 08:02:17;;;;;;;4.00;3.12;;;;;;;;;;1677120;84;21118;-66
2022/07/15 08:04:43;;;;;;;5.58;3.40;;;;;;;;;;1677641;84;21113;-67
2022/07/15 08:07:11;;;;;;;3.75;3.22;;;;;;;;;;1701380;83;21085;-67
2022/07/15 08:09:37;;;;;;;3.58;2.85;;;;;;;;;;1679172;85;21094;-67
2022/07/15 08:12:04;;;;;;;3.85;3.27;;;;;;;;;;1680347;84;21051;-67
2022/07/15 08:14:31;;;;;;;5.17;3.17;;;;;;;;;;1705415;83;21132;-69
2022/07/15 08:16:58;;;;;;;5.50;3.15;;;;;;;;;;1688956;84;21027;-68
2022/07/15 08:19:25;;;;;;;6.00;3.00;;;;;;;;;;1704202;83;21022;-68
2022/07/15 08:21:51;;;;;;;4.60;3.10;;;;;;;;;;1681963;85;21034;-67
2022/07/15 08:24:17;;;;;;;4.25;3.80;;;;;;;;;;1696004;83;21020;-66
2022/07/15 08:26:43;;;;;;;31.12;27.52;;;;;;;;;;1681897;85;21116;-68
2022/07/15 08:29:09;;;;;;;50.65;45.33;;;;;;;;;;1686978;85;21515;-68
2022/07/15 08:31:38;;;;;;;6.78;6.17;;;;;;;;;;1666064;84;21143;-67
2022/07/15 08:34:04;;;;;;;6.05;5.05;;;;;;;;;;1710482;83;21050;-65
2022/07/15 08:36:31;;;;;;;6.70;4.85;;;;;;;;;;1706495;83;20997;-68
2022/07/15 08:38:57;;;;;;;7.40;4.70;;;;;;;;;;1715071;83;21077;-69
2022/07/15 08:41:23;;;;;;;6.30;5.55;;;;;;;;;;1711483;83;21139;-67
2022/07/15 08:43:49;;;;;;;6.15;5.17;;;;;;;;;;1675791;84;21034;-67
2022/07/15 08:46:16;;;;;;;6.85;5.08;;;;;;;;;;1698702;83;21531;-67
2022/07/15 08:48:44;;;;;;;7.53;4.90;;;;;;;;;;1717177;83;20949;-66
2022/07/15 08:51:11;;;;;;;5.42;4.78;;;;;;;;;;1670609;85;21581;-68
2022/07/15 08:53:38;;;;;;;5.83;4.67;;;;;;;;;;1711053;83;21072;-65
2022/07/15 08:56:05;;;;;;;4.80;4.30;;;;;;;;;;1693540;84;21066;-68
2022/07/15 08:58:34;;;;;;;5.05;4.00;;;;;;;;;;1695965;83;21092;-66
2022/07/15 09:01:00;;;;;;;4.78;4.30;;;;;;;;;;1686783;84;21356;-67
2022/07/15 09:03:26;;;;;;;6.62;4.80;;;;;;;;;;1696181;84;21124;-67
2022/07/15 09:05:53;;;;;;;12.05;10.85;;;;;;;;;;1701714;83;21060;-64
2022/07/15 09:08:20;;;;;;;20.05;15.53;;;;;;;;;;1683013;84;21073;-65
2022/07/15 09:10:55;;;;;;;18.98;14.63;;;;;;;;;;1677481;84;21070;-65
2022/07/15 09:13:24;;;;;;;5.50;5.00;;;;;;;;;;1702220;83;21026;-65
2022/07/15 09:15:50;;;;;;;5.12;4.20;;;;;;;;;;1679665;84;21014;-65
2022/07/15 09:18:18;;;;;;;5.75;4.00;;;;;;;;;;1673795;84;21580;-65
2022/07/15 09:20:44;;;;;;;6.00;4.37;;;;;;;;;;1683901;84;21031;-66
2022/07/15 09:23:12;;;;;;;4.83;4.00;;;;;;;;;;1699399;83;21510;-66
2022/07/15 09:25:38;;;;;;;5.62;4.10;;;;;;;;;;1694932;83;21000;-66
2022/07/15 09:28:06;;;;;;;5.58;3.98;;;;;;;;;;1674632;84;21061;-67
2022/07/15 09:33:39;;;;;;;5.78;5.28;;;;;;;;;;1715931;83;22432;-66
2022/07/15 09:36:15;;;;;;;5.80;3.60;;;;;;;;;;1714564;83;21054;-67
2022/07/15 09:38:49;;;;;;;5.90;4.08;;;;;;;;;;1713616;83;21038;-68
2022/07/15 09:41:21;;;;;;;6.83;3.98;;;;;;;;;;1707021;83;21058;-66
2022/07/15 09:43:49;;;;;;;5.12;3.80;;;;;;;;;;1674102;84;21072;-66
2022/07/15 09:46:17;;;;;;;6.55;4.60;;;;;;;;;;1681205;84;21066;-67
2022/07/15 09:48:43;;;;;;;4.20;3.80;;;;;;;;;;1677274;84;21041;-66
2022/07/15 09:51:11;;;;;;;4.20;3.70;;;;;;;;;;1705462;83;21044;-66
2022/07/15 09:53:39;;;;;;;4.70;3.83;;;;;;;;;;1686709;84;21584;-67
2022/07/15 09:56:10;;;;;;;4.50;3.92;;;;;;;;;;1710322;83;21029;-66
2022/07/15 09:58:36;;;;;;;6.17;3.87;;;;;;;;;;1710440;83;21030;-66
2022/07/15 10:01:03;;;;;;;5.85;4.78;;;;;;;;;;1707777;83;21050;-66
2022/07/15 10:03:31;;;;;;;4.17;3.77;;;;;;;;;;1713589;83;21741;-66
2022/07/15 10:05:59;;;;;;;5.65;4.25;;;;;;;;;;1711251;83;21045;-66
2022/07/15 10:08:25;;;;;;;7.10;4.65;;;;;;;;;;1700544;83;21086;-67
2022/07/15 10:10:52;;;;;;;6.12;4.97;;;;;;;;;;1707522;83;21012;-67
2022/07/15 10:13:38;;;;;;;5.90;4.75;;;;;;;;;;1714792;83;21092;-67
2022/07/15 10:16:08;;;;;;;5.50;4.67;;;;;;;;;;1706933;83;21095;-67
2022/07/15 10:18:47;;;;;;;7.62;5.25;;;;;;;;;;1704015;83;21510;-67
2022/07/15 10:21:18;;;;;;;7.83;4.67;;;;;;;;;;1664965;84;21083;-66
2022/07/15 10:23:46;;;;;;;7.05;5.40;;;;;;;;;;1682810;84;21646;-67
2022/07/15 10:26:14;;;;;;;8.18;5.53;;;;;;;;;;1698028;83;21503;-67
2022/07/15 10:28:45;;;;;;;7.85;5.72;;;;;;;;;;1678641;84;21092;-68
2022/07/15 10:31:12;;;;;;;6.45;5.53;;;;;;;;;;1710526;83;21096;-68
2022/07/15 10:33:39;;;;;;;8.10;5.70;;;;;;;;;;1704289;83;21063;-68
2022/07/15 10:36:06;;;;;;;6.35;5.75;;;;;;;;;;1702479;83;21082;-67
2022/07/15 10:38:34;;;;;;;6.78;5.72;;;;;;;;;;1710078;83;21112;-68
2022/07/15 10:41:04;;;;;;;23.65;21.52;;;;;;;;;;1708240;83;22526;-65
2022/07/15 10:43:37;;;;;;;22.90;19.42;;;;;;;;;;1690721;84;21586;-65
2022/07/15 10:46:04;;;;;;;;;;;;;;;;;;1673612;84;21116;-65
2022/07/15 10:48:30;;;;;;;8.73;7.58;;;;;;;;;;1697499;83;20175;-67
2022/07/15 10:50:57;;;;;;;6.87;5.87;;;;;;;;;;1703025;83;21160;-68
2022/07/15 10:53:25;;;;;;;7.00;6.30;;;;;;;;;;1706746;83;21040;-68
2022/07/15 10:55:52;;;;;;;13.03;6.20;;;;;;;;;;1700447;84;21561;-68
2022/07/15 10:58:19;;;;;;;7.03;5.83;;;;;;;;;;1683313;84;21081;-67
2022/07/15 11:00:46;;;;;;;7.70;5.83;;;;;;;;;;1677303;84;21023;-67
2022/07/15 11:03:17;;;;;;;7.45;5.70;;;;;;;;;;1706940;83;21062;-67
2022/07/15 11:05:48;;;;;;;7.17;6.47;;;;;;;;;;1695403;84;21057;-66
2022/07/15 11:08:33;;;;;;;7.42;6.72;;;;;;;;;;1705837;83;21078;-67
2022/07/15 11:11:17;;;;;;;8.00;6.58;;;;;;;;;;1700594;83;21576;-66
2022/07/15 11:13:47;;;;;;;7.05;6.35;;;;;;;;;;1703067;83;21110;-66
2022/07/15 11:16:14;;;;;;;10.70;7.70;;;;;;;;;;1687731;84;21073;-65
2022/07/15 11:18:45;;;;;;;8.30;7.35;;;;;;;;;;1682101;84;22286;-67
2022/07/15 11:21:12;;;;;;;7.37;6.67;;;;;;;;;;1700869;83;21028;-67
2022/07/15 11:23:38;;;;;;;8.00;7.17;;;;;;;;;;1697763;83;21070;-67
2022/07/15 11:26:04;;;;;;;7.75;6.90;;;;;;;;;;1707901;83;20984;-67
2022/07/15 11:28:30;;;;;;;7.15;6.30;;;;;;;;;;1682024;85;21055;-68
2022/07/15 11:30:56;;;;;;;7.87;6.33;;;;;;;;;;1664730;85;22092;-68
2022/07/15 11:33:25;;;;;;;8.43;6.17;;;;;;;;;;1696227;83;21347;-67
2022/07/15 11:35:53;;;;;;;8.93;5.35;;;;;;;;;;1708118;83;22162;-68
2022/07/15 11:38:22;;;;;;;7.22;5.78;;;;;;;;;;1706241;83;21093;-68
2022/07/15 11:46:19;;;;;;;7.45;6.75;;;;;;;;;;1703058;83;21069;-67
2022/07/15 11:48:46;;;;;;;8.03;6.15;;;;;;;;;;1709150;83;21513;-67
2022/07/15 11:51:12;;;;;;;7.08;6.37;;;;;;;;;;1705570;83;21096;-67
2022/07/15 11:53:39;;;;;;;8.40;6.30;;;;;;;;;;1704274;83;21076;-68
2022/07/15 11:56:06;;;;;;;11.20;10.00;;;;;;;;;;1702171;83;21150;-68
2022/07/15 11:58:37;;;;;;;34.35;30.77;;;;;;;;;;1671261;84;21080;-66
2022/07/15 12:01:04;;;;;;;34.85;31.23;;;;;;;;;;1710537;83;21042;-65
2022/07/15 12:03:31;;;;;;;10.82;9.73;;;;;;;;;;1675678;85;20999;-65
2022/07/15 12:06:01;;;;;;;9.48;7.28;;;;;;;;;;1674300;85;21085;-66
2022/07/15 12:08:39;;;;;;;8.20;7.12;;;;;;;;;;1680872;83;21073;-65
2022/07/15 12:11:09;;;;;;;11.48;7.05;;;;;;;;;;1681183;85;21567;-66
2022/07/15 12:13:39;;;;;;;9.87;7.17;;;;;;;;;;1711707;83;21522;-65
2022/07/15 12:16:06;;;;;;;16.85;14.47;;;;;;;;;;1711841;83;21488;-67
2022/07/15 12:18:33;;;;;;;36.08;27.75;;;;;;;;;;1678171;84;21609;-67
2022/07/15 12:20:59;;;;;;;16.85;15.05;;;;;;;;;;1680918;84;21096;-66
2022/07/15 12:23:28;;;;;;;12.15;7.95;;;;;;;;;;1683402;84;21041;-67
2022/07/15 12:26:03;;;;;;;9.38;6.65;;;;;;;;;;1710707;83;21060;-65
2022/07/15 12:28:30;;;;;;;10.60;8.33;;;;;;;;;;1670342;85;21029;-66
2022/07/15 12:30:57;;;;;;;8.35;7.35;;;;;;;;;;1669526;85;21067;-65
2022/07/15 12:33:23;;;;;;;8.98;8.08;;;;;;;;;;1696730;84;21070;-65
2022/07/15 12:35:49;;;;;;;8.20;7.40;;;;;;;;;;1703496;83;21050;-66
2022/07/15 12:38:28;;;;;;;8.30;7.50;;;;;;;;;;1668803;85;21087;-66
2022/07/15 12:40:56;;;;;;;9.30;8.40;;;;;;;;;;1702130;83;21027;-66
2022/07/15 12:43:23;;;;;;;10.40;8.25;;;;;;;;;;1706843;83;21059;-67
2022/07/15 12:45:50;;;;;;;8.35;6.97;;;;;;;;;;1677617;85;21134;-67
2022/07/15 12:48:17;;;;;;;10.58;6.67;;;;;;;;;;1677910;84;21013;-68
2022/07/15 12:50:48;;;;;;;7.30;6.58;;;;;;;;;;1674689;85;21032;-67
2022/07/15 12:53:15;;;;;;;7.60;5.90;;;;;;;;;;1673452;85;21830;-68
2022/07/15 12:55:45;;;;;;;7.92;6.30;;;;;;;;;;1668941;85;21062;-67
2022/07/15 12:58:12;;;;;;;7.12;6.40;;;;;;;;;;1664417;85;21050;-67
2022/07/15 13:00:39;;;;;;;7.55;6.75;;;;;;;;;;1706945;83;21032;-67
2022/07/15 13:03:06;;;;;;;7.47;6.08;;;;;;;;;;1689110;83;21080;-68
2022/07/15 13:06:56;;;;;;;11.33;10.13;;;;;;;;;;1806134;78;23477;-68
2022/07/15 13:09:22;;;;;;;7.87;6.47;;;;;;;;;;1782033;78;21547;-68
2022/07/15 13:11:59;;;;;;;6.90;5.72;;;;;;;;;;1783129;78;21527;-68
2022/07/15 13:14:25;;;;;;;5.97;5.37;;;;;;;;;;1780915;80;20994;-67
2022/07/15 13:16:51;;;;;;;6.35;5.70;;;;;;;;;;1780971;78;21084;-67
2022/07/15 13:19:18;;;;;;;8.03;6.40;;;;;;;;;;1786337;78;21029;-67
2022/07/15 13:21:44;;;;;;;26.82;22.60;;;;;;;;;;1787431;80;21036;-68
2022/07/15 13:24:12;;;;;;;14.68;12.07;;;;;;;;;;1777777;80;21057;-68
2022/07/15 13:26:39;;;;;;;64.05;57.05;;;;;;;;;;1780768;78;21028;-68
2022/07/15 13:29:06;;;;;;;6.53;5.72;;;;;;;;;;1785391;78;21059;-68
2022/07/15 13:31:33;;;;;;;6.58;5.40;;;;;;;;;;1786507;79;21005;-67
2022/07/15 13:33:59;;;;;;;7.70;5.28;;;;;;;;;;1789812;79;20978;-68
2022/07/15 13:36:25;;;;;;;7.28;4.95;;;;;;;;;;1786192;79;21079;-68
2022/07/15 13:38:52;;;;;;;7.50;4.92;;;;;;;;;;1781788;80;20989;-66
2022/07/15 13:41:19;;;;;;;5.53;4.72;;;;;;;;;;1787487;78;21188;-67
2022/07/15 13:43:45;;;;;;;5.50;4.70;;;;;;;;;;1774100;80;21058;-66
2022/07/15 13:46:11;;;;;;;6.20;4.33;;;;;;;;;;1785378;79;21016;-67
2022/07/15 13:48:37;;;;;;;5.37;4.50;;;;;;;;;;1785111;78;21547;-67
2022/07/15 13:53:47;;;;;;;5.78;4.85;;;;;;;;;;1743950;81;21528;-67
2022/07/15 13:56:14;;;;;;;5.40;4.90;;;;;;;;;;1741001;81;21098;-66
2022/07/15 13:58:40;;;;;;;7.78;4.95;;;;;;;;;;1743213;81;21077;-66
2022/07/15 14:01:06;;;;;;;6.65;4.85;;;;;;;;;;1742578;80;21139;-66
2022/07/15 14:03:32;;;;;;;5.80;4.05;;;;;;;;;;1720066;81;21181;-66
2022/07/15 14:19:05;;;;;;;4.75;4.30;;;;;;;;;;1779928;79;22978;-62
2022/07/15 14:21:32;;;;;;;4.78;4.00;;;;;;;;;;1743502;81;21009;-62
2022/07/15 14:23:58;;;;;;;5.22;3.98;;;;;;;;;;1745996;82;21000;-62
2022/07/15 14:26:24;;;;;;;5.40;3.98;;;;;;;;;;1745352;81;21023;-64
2022/07/15 14:28:50;;;;;;;6.97;4.87;;;;;;;;;;1751435;81;21055;-61
2022/07/15 14:31:17;;;;;;;5.87;4.10;;;;;;;;;;1746150;81;22053;-61
2022/07/15 14:33:44;;;;;;;5.15;4.00;;;;;;;;;;1741911;81;21051;-61
2022/07/15 14:36:10;;;;;;;4.60;4.10;;;;;;;;;;1741169;82;21027;-64
2022/07/15 14:38:37;;;;;;;5.08;4.22;;;;;;;;;;1743993;82;21119;-65
2022/07/15 14:41:06;;;;;;;5.50;4.40;;;;;;;;;;1741719;82;21044;-64
2022/07/15 14:43:32;;;;;;;4.80;3.90;;;;;;;;;;1742127;82;21515;-65
2022/07/15 14:45:58;;;;;;;5.83;4.00;;;;;;;;;;1743334;81;21027;-65
2022/07/15 14:48:24;;;;;;;7.30;3.85;;;;;;;;;;1741373;81;21095;-65
2022/07/15 14:50:51;;;;;;;6.75;3.67;;;;;;;;;;1740414;82;21111;-65
2022/07/15 14:53:18;;;;;;;4.33;3.60;;;;;;;;;;1742267;82;21043;-65
2022/07/15 14:55:44;;;;;;;5.12;3.80;;;;;;;;;;1738402;82;21547;-64
2022/07/15 14:58:13;;;;;;;4.17;3.72;;;;;;;;;;1740300;82;21130;-65
2022/07/15 15:00:39;;;;;;;6.28;4.03;;;;;;;;;;1747008;81;21104;-65
2022/07/15 15:03:06;;;;;;;4.47;4.08;;;;;;;;;;1715804;83;21556;-63
2022/07/15 15:05:33;;;;;;;7.45;4.42;;;;;;;;;;1715319;83;21057;-66
2022/07/15 15:07:59;;;;;;;5.75;3.98;;;;;;;;;;1702305;82;21124;-65
2022/07/15 15:10:26;;;;;;;4.50;3.77;;;;;;;;;;1680953;84;21056;-65
2022/07/15 15:12:53;;;;;;;4.40;4.00;;;;;;;;;;1681460;85;21124;-65
2022/07/15 15:15:22;;;;;;;3.72;3.33;;;;;;;;;;1681513;85;21036;-64
2022/07/15 15:17:48;;;;;;;4.40;3.70;;;;;;;;;;1676976;84;21646;-63